Grand Princess — ZCBU5 — position and weather

sailwx.info

Track history (hours):
 
Tides and Currents Weather Stations Pressure Air Temp Water Temp Dewpoint Dewpoint Depression Visibility Wind Speed Wind Dir Waves Ship Positions

Grand Princess

Operator: Princess Cruises

Last reported at 2015-Jul-29 11:14 UTC. Time now 2015-Jul-30 06:07 UTC.
Position N 58°22' W 134°52'.

Length 289.5 m; beam 36 m; draft 8.5 m.

Type: Ship. MMSI: 310327000.

Date/timePositionNaut miles runAvg speedWind from/ knotsBaromVisibWave heightAir tempDewpointWater temp
2015-Jul-29 11:14N 58°22' W 134°52'710.5
2015-Jul-29 10:33N 58°27' W 135°02'1111.1
2015-Jul-29 09:33N 58°38' W 135°06'1111.2
2015-Jul-29 08:33N 58°49' W 135°11'5 0.2
2015-Jul-28 11:19N 58°54' W 135°13'8 9.2
2015-Jul-28 10:24N 58°46' W 135°10'8 9.5
2015-Jul-28 09:33N 58°38' W 135°07'1010.0
2015-Jul-28 08:33N 58°28' W 135°03'1110.5
2015-Jul-28 07:33N 58°18' W 134°60'9 9.4
2015-Jul-28 06:33N 58°09' W 135°08'1110.7
2015-Jul-28 05:33N 58°13' W 135°27'1111.1
2015-Jul-28 04:32N 58°18' W 135°46'1010.0
2015-Jul-28 03:33N 58°25' W 135°60'10 9.7
2015-Jul-28 02:33N 58°34' W 136°04'1413.6
2015-Jul-28 01:33N 58°45' W 136°19'4 0.5
2015-Jul-27 18:32N 58°43' W 136°14'1615.8
2015-Jul-27 17:33N 58°28' W 136°03'10 9.5
2015-Jul-27 16:33N 58°19' W 136°08'26910.5
2015-Jul-26 15:00N 59°30' W 144°30'137 4.3 180 / 181006.010.8 13.411.115.0
2015-Jul-25 07:00N 60°42' W 148°24'40212.8 130 / 51009.310.8 16.012.415.0
2015-Jul-23 23:33N 58°22' W 136°01'1010.2
2015-Jul-23 22:33N 58°32' W 136°04'13 1.9
2015-Jul-23 15:33N 58°44' W 136°15'1615.8
2015-Jul-23 14:34N 58°29' W 136°03'1312.5
2015-Jul-23 13:33N 58°19' W 135°50'60 1.2
2015-Jul-21 13:31N 58°01' W 134°02'1515.5
2015-Jul-21 12:33N 57°47' W 133°50'1615.5
2015-Jul-21 11:31N 57°32' W 133°42'76 8.0
2015-Jul-21 02:00N 56°18' W 133°06'221 9.4 310 / 201010.810.8 13.511.610.0
2015-Jul-20 02:19N 52°58' W 130°20'1315.4
2015-Jul-20 01:30N 52°48' W 130°09'10915.0
2015-Jul-19 18:15N 51°19' W 128°26'5815.7
2015-Jul-19 14:33N 50°46' W 127°11'  
Track history (hours):
 
Tides and Currents Weather Stations Pressure Air Temp Water Temp Dewpoint Dewpoint Depression Visibility Wind Speed Wind Dir Waves Ship Positions

Grand Princess

Operator: Princess Cruises

Last reported at 2015-Jul-29 11:14 UTC. Time now 2015-Jul-30 06:07 UTC.
Position N 58°22' W 134°52'.

Length 289.5 m; beam 36 m; draft 8.5 m.

Type: Ship. MMSI: 310327000.

Date/timePositionNaut miles runAvg speedWind from/ knotsBaromVisibWave heightAir tempDewpointWater temp
2015-Jul-29 11:14N 58°22' W 134°52'710.5
2015-Jul-29 10:33N 58°27' W 135°02'1111.1
2015-Jul-29 09:33N 58°38' W 135°06'1111.2
2015-Jul-29 08:33N 58°49' W 135°11'5 0.2
2015-Jul-28 11:19N 58°54' W 135°13'8 9.2
2015-Jul-28 10:24N 58°46' W 135°10'8 9.5
2015-Jul-28 09:33N 58°38' W 135°07'1010.0
2015-Jul-28 08:33N 58°28' W 135°03'1110.5
2015-Jul-28 07:33N 58°18' W 134°60'9 9.4
2015-Jul-28 06:33N 58°09' W 135°08'1110.7
2015-Jul-28 05:33N 58°13' W 135°27'1111.1
2015-Jul-28 04:32N 58°18' W 135°46'1010.0
2015-Jul-28 03:33N 58°25' W 135°60'10 9.7
2015-Jul-28 02:33N 58°34' W 136°04'1413.6
2015-Jul-28 01:33N 58°45' W 136°19'4 0.5
2015-Jul-27 18:32N 58°43' W 136°14'1615.8
2015-Jul-27 17:33N 58°28' W 136°03'10 9.5
2015-Jul-27 16:33N 58°19' W 136°08'26910.5
2015-Jul-26 15:00N 59°30' W 144°30'137 4.3 180 / 181006.010.8 13.411.115.0
2015-Jul-25 07:00N 60°42' W 148°24'40212.8 130 / 51009.310.8 16.012.415.0
2015-Jul-23 23:33N 58°22' W 136°01'1010.2
2015-Jul-23 22:33N 58°32' W 136°04'13 1.9
2015-Jul-23 15:33N 58°44' W 136°15'1615.8
2015-Jul-23 14:34N 58°29' W 136°03'1312.5
2015-Jul-23 13:33N 58°19' W 135°50'60 1.2
2015-Jul-21 13:31N 58°01' W 134°02'1515.5
2015-Jul-21 12:33N 57°47' W 133°50'1615.5
2015-Jul-21 11:31N 57°32' W 133°42'76 8.0
2015-Jul-21 02:00N 56°18' W 133°06'221 9.4 310 / 201010.810.8 13.511.610.0
2015-Jul-20 02:19N 52°58' W 130°20'1315.4
2015-Jul-20 01:30N 52°48' W 130°09'10915.0
2015-Jul-19 18:15N 51°19' W 128°26'5815.7
2015-Jul-19 14:33N 50°46' W 127°11'  

Dump ship's entire track history